createdAt,value
2019-03-24T00:01:27.735Z,6.75
2019-03-24T00:03:58.862Z,6.76
2019-03-24T00:06:29.736Z,6.73
2019-03-24T00:09:00.560Z,6.74
2019-03-24T00:11:31.528Z,6.74
2019-03-24T00:14:02.521Z,6.75
2019-03-24T00:16:33.454Z,6.74
2019-03-24T00:19:04.615Z,6.76
2019-03-24T00:21:35.637Z,6.77
2019-03-24T00:24:07.484Z,6.78
2019-03-24T00:26:38.334Z,6.79
2019-03-24T00:29:09.347Z,6.79
2019-03-24T00:31:40.191Z,6.82
2019-03-24T00:34:11.054Z,6.82
2019-03-24T00:36:42.070Z,6.84
2019-03-24T00:39:12.949Z,6.85
2019-03-24T00:41:43.987Z,6.84
2019-03-24T00:44:15.014Z,6.84
2019-03-24T00:46:45.939Z,6.84
2019-03-24T00:49:16.855Z,6.83
2019-03-24T00:51:47.733Z,6.84
2019-03-24T00:54:19.312Z,6.84
2019-03-24T00:56:50.163Z,6.86
2019-03-24T00:59:24.935Z,6.84
2019-03-24T01:01:55.917Z,6.85
2019-03-24T01:04:26.852Z,6.82
2019-03-24T01:06:57.765Z,6.84
2019-03-24T01:09:28.991Z,6.84
2019-03-24T01:11:59.993Z,6.86
2019-03-24T01:14:30.987Z,6.86
2019-03-24T01:17:01.991Z,6.86
2019-03-24T01:19:32.987Z,6.86
2019-03-24T01:22:04.097Z,6.86
2019-03-24T01:24:34.999Z,6.88
2019-03-24T01:27:05.980Z,6.87
2019-03-24T01:29:36.908Z,6.88
2019-03-24T01:32:07.886Z,6.87
2019-03-24T01:34:38.893Z,6.88
2019-03-24T01:37:09.908Z,6.85
2019-03-24T01:39:40.766Z,6.82
2019-03-24T01:42:11.711Z,6.80
2019-03-24T01:44:42.629Z,6.76
2019-03-24T01:47:13.721Z,6.75
2019-03-24T01:49:44.757Z,6.73
2019-03-24T01:52:15.664Z,6.71
2019-03-24T01:54:46.535Z,6.70
2019-03-24T01:57:17.449Z,6.70
2019-03-24T01:59:48.511Z,6.66
2019-03-24T02:02:19.831Z,6.64
2019-03-24T02:04:50.675Z,6.61
2019-03-24T02:07:21.738Z,6.59
2019-03-24T02:09:52.747Z,6.56
2019-03-24T02:12:23.806Z,6.51
2019-03-24T02:14:54.656Z,6.45
2019-03-24T02:17:25.740Z,6.43
2019-03-24T02:19:56.587Z,6.40
2019-03-24T02:22:27.589Z,6.37
2019-03-24T02:25:11.418Z,6.36
2019-03-24T02:27:54.235Z,6.34
2019-03-24T02:30:25.112Z,6.33
2019-03-24T02:32:56.093Z,6.31
2019-03-24T02:35:27.015Z,6.30
2019-03-24T02:37:57.867Z,6.30
2019-03-24T02:40:28.867Z,6.32
2019-03-24T02:42:59.703Z,6.33
2019-03-24T02:48:08.241Z,6.44
2019-03-24T02:50:39.083Z,6.40
2019-03-24T02:53:10.017Z,6.39
2019-03-24T02:55:41.033Z,6.38
2019-03-24T02:58:12.051Z,6.39
2019-03-24T03:00:43.173Z,6.39
2019-03-24T03:03:14.095Z,6.40
2019-03-24T03:05:44.960Z,6.40
2019-03-24T03:08:15.959Z,6.42
2019-03-24T03:10:46.841Z,6.40
2019-03-24T03:13:17.778Z,6.40
2019-03-24T03:15:48.712Z,6.40
2019-03-24T03:18:19.727Z,6.41
2019-03-24T03:20:50.747Z,6.42
2019-03-24T03:23:21.749Z,6.43
2019-03-24T03:25:52.809Z,6.42
2019-03-24T03:28:23.682Z,6.45
2019-03-24T03:30:54.524Z,6.44
2019-03-24T03:33:25.396Z,6.44
2019-03-24T03:35:56.391Z,6.44
2019-03-24T03:38:27.320Z,6.43
2019-03-24T03:40:58.559Z,6.40
2019-03-24T03:43:29.474Z,6.40
2019-03-24T03:46:00.557Z,6.40
2019-03-24T03:48:31.620Z,6.39
2019-03-24T03:51:03.621Z,6.40
2019-03-24T03:53:34.577Z,6.37
2019-03-24T03:56:05.576Z,6.36
2019-03-24T03:58:36.517Z,6.35
2019-03-24T04:01:07.531Z,6.33
2019-03-24T04:03:38.402Z,6.29
2019-03-24T04:06:09.257Z,6.29
2019-03-24T04:08:40.269Z,6.28
2019-03-24T04:11:11.132Z,6.24
2019-03-24T04:13:41.965Z,6.23
2019-03-24T04:16:13.997Z,6.22
2019-03-24T04:18:45.004Z,6.21
2019-03-24T04:21:15.941Z,6.20
2019-03-24T04:23:46.835Z,6.17
2019-03-24T04:26:17.759Z,6.15
2019-03-24T04:28:48.861Z,6.14
2019-03-24T04:31:19.979Z,6.12
2019-03-24T04:33:51.088Z,6.10
2019-03-24T04:36:22.182Z,6.08
2019-03-24T04:38:53.319Z,6.04
2019-03-24T04:41:24.515Z,6.03
2019-03-24T04:43:55.865Z,6.01
2019-03-24T04:46:26.941Z,5.98
2019-03-24T04:48:58.270Z,5.97
2019-03-24T04:51:29.225Z,5.93
2019-03-24T04:54:00.227Z,5.91
2019-03-24T04:56:31.357Z,5.90
2019-03-24T04:59:02.683Z,5.87
2019-03-24T05:01:33.671Z,5.85
2019-03-24T05:04:04.727Z,5.82
2019-03-24T05:06:36.322Z,5.80
2019-03-24T05:09:08.183Z,5.79
2019-03-24T05:11:39.426Z,5.77
2019-03-24T05:14:10.553Z,5.76
2019-03-24T05:16:41.413Z,5.76
2019-03-24T05:19:12.282Z,5.72
2019-03-24T05:21:43.271Z,5.78
2019-03-24T05:24:16.055Z,5.76
2019-03-24T05:26:47.007Z,5.73
2019-03-24T05:29:17.966Z,5.68
2019-03-24T05:31:48.943Z,5.61
2019-03-24T05:34:19.898Z,5.60
2019-03-24T05:36:50.789Z,5.61
2019-03-24T05:39:21.703Z,5.61
2019-03-24T05:41:52.647Z,5.63
2019-03-24T05:44:23.603Z,5.63
2019-03-24T05:46:54.635Z,5.66
2019-03-24T05:49:25.577Z,5.69
2019-03-24T05:51:56.562Z,5.72
2019-03-24T05:54:27.466Z,5.73
2019-03-24T05:56:58.633Z,5.79
2019-03-24T05:59:29.614Z,5.84
2019-03-24T06:02:00.864Z,5.92
2019-03-24T06:04:32.329Z,6.00
2019-03-24T06:07:03.635Z,6.09
2019-03-24T06:09:34.968Z,6.17
2019-03-24T06:12:06.509Z,6.27
2019-03-24T06:14:37.841Z,6.35
2019-03-24T06:17:09.055Z,6.42
2019-03-24T06:19:40.419Z,6.47
2019-03-24T06:22:11.796Z,6.55
2019-03-24T06:24:43.141Z,6.60
2019-03-24T06:27:14.499Z,6.64
2019-03-24T06:29:45.938Z,6.73
2019-03-24T06:32:17.210Z,6.80
2019-03-24T06:37:21.161Z,7.04
2019-03-24T06:39:52.477Z,7.06
2019-03-24T06:42:23.835Z,7.08
2019-03-24T06:44:55.164Z,7.13
2019-03-24T06:47:26.571Z,7.18
2019-03-24T06:49:57.814Z,7.26
2019-03-24T06:52:29.183Z,7.30
2019-03-24T06:55:00.504Z,7.34
2019-03-24T06:57:31.872Z,7.38
2019-03-24T07:00:04.329Z,7.47
2019-03-24T07:02:35.948Z,7.53
2019-03-24T07:05:08.179Z,7.60
2019-03-24T07:07:39.484Z,7.71
2019-03-24T07:10:12.216Z,7.84
2019-03-24T07:12:43.524Z,7.96
2019-03-24T07:15:15.323Z,8.03
2019-03-24T07:17:46.721Z,8.20
2019-03-24T07:20:18.463Z,8.36
2019-03-24T07:22:50.146Z,8.52
2019-03-24T07:25:21.670Z,8.65
2019-03-24T07:27:53.086Z,8.73
2019-03-24T07:30:24.466Z,8.84
2019-03-24T07:32:55.836Z,8.94
2019-03-24T07:38:07.920Z,9.21
2019-03-24T07:40:39.499Z,9.28
2019-03-24T07:43:10.843Z,9.39
2019-03-24T07:45:42.165Z,9.51
2019-03-24T07:48:19.149Z,9.65
2019-03-24T07:50:46.466Z,9.77
2019-03-24T07:53:17.782Z,9.85
2019-03-24T07:55:49.263Z,9.90
2019-03-24T07:58:20.699Z,9.90
2019-03-24T08:00:51.952Z,9.86
2019-03-24T08:03:23.275Z,9.88
2019-03-24T08:05:54.548Z,9.93
2019-03-24T08:08:25.976Z,10.00
2019-03-24T08:10:57.426Z,10.03
2019-03-24T08:13:29.294Z,10.07
2019-03-24T08:16:00.701Z,10.13
2019-03-24T08:18:32.006Z,10.16
2019-03-24T08:21:03.527Z,10.21
2019-03-24T08:23:34.966Z,10.20
2019-03-24T08:26:06.344Z,10.18
2019-03-24T08:28:37.767Z,10.28
2019-03-24T08:31:09.315Z,10.33
2019-03-24T08:33:40.718Z,10.34
2019-03-24T08:36:12.126Z,10.43
2019-03-24T08:38:43.671Z,10.51
2019-03-24T08:41:15.160Z,10.52
2019-03-24T08:43:46.670Z,10.59
2019-03-24T08:46:19.133Z,10.74
2019-03-24T08:48:50.529Z,10.81
2019-03-24T08:51:22.015Z,10.83
2019-03-24T08:53:53.570Z,10.82
2019-03-24T08:56:31.471Z,10.82
2019-03-24T08:59:10.393Z,10.95
2019-03-24T09:02:08.744Z,11.16
2019-03-24T09:04:40.169Z,11.44
2019-03-24T09:07:11.625Z,11.69
2019-03-24T09:09:43.285Z,11.74
2019-03-24T09:12:14.806Z,11.84
2019-03-24T09:14:46.117Z,11.95
2019-03-24T09:17:17.784Z,11.97
2019-03-24T09:19:49.062Z,11.96
2019-03-24T09:22:20.441Z,12.02
2019-03-24T09:24:51.888Z,12.03
2019-03-24T09:27:23.247Z,12.01
2019-03-24T09:29:54.805Z,11.91
2019-03-24T09:32:26.135Z,11.77
2019-03-24T09:35:03.225Z,11.67
2019-03-24T09:37:41.176Z,11.57
2019-03-24T09:40:20.919Z,11.55
2019-03-24T09:42:52.298Z,11.62
2019-03-24T09:45:23.732Z,11.72
2019-03-24T09:47:55.266Z,11.79
2019-03-24T09:50:26.546Z,11.77
2019-03-24T09:55:50.302Z,11.74
2019-03-24T09:58:21.621Z,11.55
2019-03-24T10:00:52.954Z,11.72
2019-03-24T10:06:04.451Z,12.40
2019-03-24T10:08:46.626Z,12.47
2019-03-24T10:11:08.926Z,12.40
2019-03-24T10:13:39.911Z,12.07
2019-03-24T10:16:10.917Z,11.86
2019-03-24T10:18:41.841Z,11.95
2019-03-24T10:21:12.921Z,12.07
2019-03-24T10:23:43.963Z,12.22
2019-03-24T10:26:14.906Z,12.49
2019-03-24T10:28:45.833Z,12.55
2019-03-24T10:31:16.917Z,12.40
2019-03-24T10:33:47.771Z,12.17
2019-03-24T10:36:18.719Z,11.93
2019-03-24T10:38:55.350Z,11.85
2019-03-24T10:41:26.297Z,11.89
2019-03-24T10:43:57.234Z,11.83
2019-03-24T10:46:28.163Z,11.68
2019-03-24T10:48:59.121Z,11.63
2019-03-24T10:51:30.084Z,11.77
2019-03-24T10:54:01.042Z,11.85
2019-03-24T10:56:31.988Z,11.95
2019-03-24T10:59:03.012Z,12.22
2019-03-24T11:01:33.907Z,12.62
2019-03-24T11:04:05.057Z,12.78
2019-03-24T11:06:36.042Z,12.79
2019-03-24T11:09:07.760Z,12.85
2019-03-24T11:11:38.912Z,13.10
2019-03-24T11:14:09.917Z,13.34
2019-03-24T11:16:40.794Z,13.28
2019-03-24T11:19:11.920Z,13.06
2019-03-24T11:21:42.893Z,12.92
2019-03-24T11:24:14.058Z,13.10
2019-03-24T11:26:45.078Z,13.67
2019-03-24T11:29:15.957Z,14.18
2019-03-24T11:31:46.903Z,14.38
2019-03-24T11:34:18.089Z,14.58
2019-03-24T11:36:49.060Z,14.72
2019-03-24T11:39:20.859Z,14.63
2019-03-24T11:41:51.955Z,14.44
2019-03-24T11:44:22.965Z,14.46
2019-03-24T11:46:54.163Z,14.44
2019-03-24T11:49:25.126Z,14.30
2019-03-24T11:51:56.055Z,14.32
2019-03-24T11:54:27.069Z,14.35
2019-03-24T11:56:59.711Z,14.72
2019-03-24T11:59:33.885Z,15.15
2019-03-24T12:02:05.033Z,15.60
2019-03-24T12:04:35.957Z,15.99
2019-03-24T12:07:07.596Z,16.34
2019-03-24T12:09:38.546Z,16.51
2019-03-24T12:12:09.555Z,16.55
2019-03-24T12:14:40.435Z,16.34
2019-03-24T12:17:11.829Z,15.88
2019-03-24T12:19:42.713Z,15.98
2019-03-24T12:22:13.675Z,15.96
2019-03-24T12:24:44.577Z,15.75
2019-03-24T12:27:15.503Z,15.62
2019-03-24T12:29:46.543Z,15.82
2019-03-24T12:32:17.441Z,16.54
2019-03-24T12:34:48.467Z,17.11
2019-03-24T12:37:19.420Z,17.20
2019-03-24T12:39:50.528Z,16.66
2019-03-24T12:42:21.599Z,16.07
2019-03-24T12:44:52.492Z,15.75
2019-03-24T12:47:24.780Z,15.23
2019-03-24T12:49:55.930Z,15.34
2019-03-24T12:52:27.521Z,16.19
2019-03-24T12:54:58.524Z,17.06
2019-03-24T12:57:29.690Z,17.68
2019-03-24T13:00:00.595Z,18.28
2019-03-24T13:02:31.743Z,19.05
2019-03-24T13:05:02.994Z,19.75
2019-03-24T13:07:34.049Z,20.37
2019-03-24T13:10:05.353Z,20.33
2019-03-24T13:12:36.374Z,20.89
2019-03-24T13:15:08.146Z,21.15
2019-03-24T13:17:39.172Z,21.30
2019-03-24T13:20:20.152Z,21.65
2019-03-24T13:22:43.470Z,21.90
2019-03-24T13:25:14.521Z,21.52
2019-03-24T13:27:45.559Z,21.09
2019-03-24T13:30:18.777Z,21.16
2019-03-24T13:32:49.676Z,21.33
2019-03-24T13:35:21.433Z,21.32
2019-03-24T13:37:52.828Z,20.99
2019-03-24T13:40:24.060Z,21.28
2019-03-24T13:42:54.905Z,21.65
2019-03-24T13:45:25.811Z,21.98
2019-03-24T13:47:56.821Z,22.18
2019-03-24T13:50:31.624Z,22.28
2019-03-24T13:53:00.437Z,22.54
2019-03-24T13:55:31.676Z,22.99
2019-03-24T13:58:02.958Z,23.85
2019-03-24T14:00:33.940Z,23.59
2019-03-24T14:03:04.936Z,21.71
2019-03-24T14:05:35.791Z,20.56
2019-03-24T14:08:07.774Z,19.93
2019-03-24T14:10:38.782Z,19.75
2019-03-24T14:13:09.818Z,20.39
2019-03-24T14:15:40.894Z,19.55
2019-03-24T14:18:11.793Z,18.82
2019-03-24T14:20:43.967Z,19.68
2019-03-24T14:23:15.127Z,19.89
2019-03-24T14:25:46.067Z,19.56
2019-03-24T14:28:17.067Z,20.12
2019-03-24T14:30:49.541Z,21.12
2019-03-24T14:33:20.656Z,21.61
2019-03-24T14:35:51.746Z,22.15
2019-03-24T14:38:22.784Z,22.43
2019-03-24T14:40:53.718Z,22.79
2019-03-24T14:43:24.593Z,22.98
2019-03-24T14:45:55.598Z,23.30
2019-03-24T14:48:26.609Z,23.49
2019-03-24T14:50:57.662Z,23.71
2019-03-24T14:54:21.466Z,23.15
2019-03-24T14:57:00.055Z,23.50
2019-03-24T14:59:31.240Z,23.99
2019-03-24T15:02:02.343Z,22.61
2019-03-24T15:04:33.272Z,22.75
2019-03-24T15:07:04.391Z,23.25
2019-03-24T15:09:35.277Z,22.27
2019-03-24T15:12:07.637Z,22.25
2019-03-24T15:14:38.621Z,22.60
2019-03-24T15:17:09.659Z,23.41
2019-03-24T15:19:40.674Z,24.09
2019-03-24T15:22:16.817Z,24.57
2019-03-24T15:24:47.713Z,25.06
2019-03-24T15:27:18.666Z,25.58
2019-03-24T15:29:49.613Z,26.07
2019-03-24T15:32:20.579Z,26.27
2019-03-24T15:34:51.446Z,26.38
2019-03-24T15:37:22.465Z,26.50
2019-03-24T15:39:53.411Z,26.10
2019-03-24T15:42:24.350Z,25.46
2019-03-24T15:44:55.391Z,24.60
2019-03-24T15:47:26.514Z,22.30
2019-03-24T15:49:57.490Z,21.91
2019-03-24T15:52:28.493Z,21.50
2019-03-24T15:54:59.380Z,20.25
2019-03-24T15:57:30.534Z,19.89
2019-03-24T16:00:01.621Z,18.65
2019-03-24T16:02:32.636Z,17.54
2019-03-24T16:05:03.867Z,17.46
2019-03-24T16:07:34.918Z,16.82
2019-03-24T16:10:06.335Z,16.50
2019-03-24T16:12:37.388Z,17.96
2019-03-24T16:15:09.098Z,19.58
2019-03-24T16:17:40.269Z,20.50
2019-03-24T16:20:11.366Z,19.72
2019-03-24T16:22:42.331Z,18.65
2019-03-24T16:25:13.387Z,17.40
2019-03-24T16:27:44.442Z,16.32
2019-03-24T16:30:15.746Z,15.57
2019-03-24T16:32:46.712Z,14.94
2019-03-24T16:35:17.738Z,14.39
2019-03-24T16:37:48.615Z,13.95
2019-03-24T16:40:19.654Z,13.61
2019-03-24T16:42:50.678Z,13.41
2019-03-24T16:45:21.658Z,13.32
2019-03-24T16:47:52.739Z,13.62
2019-03-24T16:50:23.866Z,14.67
2019-03-24T16:52:54.987Z,15.49
2019-03-24T16:55:25.958Z,15.96
2019-03-24T16:57:57.300Z,16.32
2019-03-24T17:00:28.613Z,16.57
2019-03-24T17:03:00.106Z,16.80
2019-03-24T17:05:31.863Z,16.49
2019-03-24T17:08:03.197Z,15.99
2019-03-24T17:10:34.504Z,15.07
2019-03-24T17:13:05.794Z,14.11
2019-03-24T17:15:37.615Z,13.41
2019-03-24T17:18:09.706Z,12.91
2019-03-24T17:23:16.985Z,12.20
2019-03-24T17:25:48.103Z,11.85
2019-03-24T17:28:19.259Z,11.58
2019-03-24T17:30:50.313Z,11.36
2019-03-24T17:33:21.280Z,11.16
2019-03-24T17:35:52.382Z,11.01
2019-03-24T17:38:23.390Z,11.00
2019-03-24T17:40:54.429Z,10.91
2019-03-24T17:43:25.314Z,10.75
2019-03-24T17:45:56.367Z,10.58
2019-03-24T17:48:27.247Z,10.44
2019-03-24T17:50:58.284Z,10.31
2019-03-24T17:53:29.340Z,10.21
2019-03-24T17:56:00.335Z,10.08
2019-03-24T17:58:31.330Z,9.92
2019-03-24T18:01:02.230Z,9.78
2019-03-24T18:03:33.172Z,9.68
2019-03-24T18:06:04.209Z,9.57
2019-03-24T18:08:35.258Z,9.55
2019-03-24T18:11:07.540Z,9.56
2019-03-24T18:13:38.481Z,9.62
2019-03-24T18:16:09.566Z,9.63
2019-03-24T18:18:40.607Z,9.63
2019-03-24T18:21:11.784Z,9.53
2019-03-24T18:23:42.667Z,9.40
2019-03-24T18:26:13.827Z,9.32
2019-03-24T18:28:44.779Z,9.21
2019-03-24T18:31:15.848Z,9.10
2019-03-24T18:33:46.700Z,8.98
2019-03-24T18:36:17.991Z,8.87
2019-03-24T18:38:54.356Z,8.76
2019-03-24T18:41:27.419Z,8.67
2019-03-24T18:43:58.719Z,8.58
2019-03-24T18:46:30.042Z,8.50
2019-03-24T18:49:01.434Z,8.42
2019-03-24T18:51:36.804Z,8.34
2019-03-24T18:54:14.870Z,8.30
2019-03-24T18:56:49.283Z,8.24
2019-03-24T18:59:26.642Z,8.20
2019-03-24T19:02:03.268Z,8.12
2019-03-24T19:04:40.633Z,8.06
2019-03-24T19:07:20.330Z,8.00
2019-03-24T19:09:55.162Z,7.93
2019-03-24T19:12:32.885Z,7.81
2019-03-24T19:15:08.388Z,7.79
2019-03-24T19:17:40.004Z,7.73
2019-03-24T19:20:17.834Z,7.67
2019-03-24T19:22:53.633Z,7.61
2019-03-24T19:25:34.251Z,7.55
2019-03-24T19:28:10.939Z,7.50
2019-03-24T19:30:42.981Z,7.45
2019-03-24T19:33:14.393Z,7.40
2019-03-24T19:35:45.737Z,7.36
2019-03-24T19:38:17.520Z,7.29
2019-03-24T19:40:48.774Z,7.24
2019-03-24T19:43:20.126Z,7.22
2019-03-24T19:45:51.364Z,7.18
2019-03-24T19:48:22.616Z,7.15
2019-03-24T19:50:53.915Z,7.09
2019-03-24T19:53:25.267Z,7.05
2019-03-24T19:55:56.622Z,7.00
2019-03-24T19:58:28.007Z,6.97
2019-03-24T20:00:59.257Z,6.94
2019-03-24T20:03:30.572Z,6.90
2019-03-24T20:06:01.891Z,6.85
2019-03-24T20:08:33.306Z,6.81
2019-03-24T20:11:04.716Z,6.77
2019-03-24T20:13:36.163Z,6.73
2019-03-24T20:16:08.360Z,6.69
2019-03-24T20:18:39.760Z,6.67
2019-03-24T20:21:11.138Z,6.64
2019-03-24T20:23:42.481Z,6.56
2019-03-24T20:26:13.836Z,6.55
2019-03-24T20:28:45.215Z,6.53
2019-03-24T20:31:16.523Z,6.50
2019-03-24T20:33:47.820Z,6.46
2019-03-24T20:36:19.116Z,6.44
2019-03-24T20:38:50.483Z,6.41
2019-03-24T20:41:21.749Z,6.37
2019-03-24T20:43:53.163Z,6.32
2019-03-24T20:46:24.445Z,6.33
2019-03-24T20:48:55.899Z,6.31
2019-03-24T20:51:28.593Z,6.29
2019-03-24T20:53:59.637Z,6.26
2019-03-24T20:56:30.647Z,6.26
2019-03-24T20:59:01.681Z,6.23
2019-03-24T21:01:32.526Z,6.22
2019-03-24T21:04:03.969Z,6.21
2019-03-24T21:06:34.961Z,6.24
2019-03-24T21:09:08.073Z,6.28
2019-03-24T21:11:39.300Z,6.34
2019-03-24T21:14:10.815Z,6.40
2019-03-24T21:16:42.110Z,6.45
2019-03-24T21:19:13.439Z,6.50
2019-03-24T21:21:44.735Z,6.52
2019-03-24T21:24:17.528Z,6.58
2019-03-24T21:26:48.880Z,6.62
2019-03-24T21:29:20.131Z,6.63
2019-03-24T21:31:51.325Z,6.60
2019-03-24T21:34:22.658Z,6.57
2019-03-24T21:36:54.076Z,6.48
2019-03-24T21:39:25.193Z,6.47
2019-03-24T21:41:56.282Z,6.44
2019-03-24T21:44:30.063Z,6.43
2019-03-24T21:49:34.741Z,6.53
2019-03-24T21:52:06.046Z,6.58
2019-03-24T21:54:37.139Z,6.64
2019-03-24T21:57:08.214Z,6.74
2019-03-24T21:59:39.109Z,6.78
2019-03-24T22:02:10.139Z,6.85
2019-03-24T22:04:41.283Z,6.91
2019-03-24T22:07:12.301Z,6.94
2019-03-24T22:09:43.368Z,6.99
2019-03-24T22:12:17.162Z,7.18
2019-03-24T22:14:52.984Z,7.12
2019-03-24T22:17:24.014Z,7.06
2019-03-24T22:19:54.974Z,7.00
2019-03-24T22:22:25.980Z,6.97
2019-03-24T22:24:56.834Z,6.93
2019-03-24T22:27:27.768Z,6.91
2019-03-24T22:29:58.741Z,6.89
2019-03-24T22:32:29.592Z,6.90
2019-03-24T22:35:00.647Z,6.93
2019-03-24T22:37:31.482Z,6.93
2019-03-24T22:40:02.347Z,6.96
2019-03-24T22:42:33.264Z,6.99
2019-03-24T22:45:04.372Z,7.00
2019-03-24T22:47:35.317Z,7.00
2019-03-24T22:50:07.364Z,7.02
2019-03-24T22:52:38.301Z,7.03
2019-03-24T22:55:10.814Z,7.02
2019-03-24T22:57:41.840Z,7.05
2019-03-24T23:00:23.771Z,7.06
2019-03-24T23:02:54.879Z,7.04
2019-03-24T23:05:25.891Z,7.05
2019-03-24T23:07:56.874Z,7.05
2019-03-24T23:10:27.851Z,7.07
2019-03-24T23:12:58.884Z,7.06
2019-03-24T23:15:29.977Z,7.08
2019-03-24T23:18:00.919Z,7.10
2019-03-24T23:20:31.890Z,7.14
2019-03-24T23:23:02.879Z,7.17
2019-03-24T23:25:33.938Z,7.21
2019-03-24T23:28:05.169Z,7.27
2019-03-24T23:30:36.204Z,7.30
2019-03-24T23:33:07.805Z,7.34
2019-03-24T23:35:38.727Z,7.33
2019-03-24T23:38:09.750Z,7.29
2019-03-24T23:40:40.761Z,7.16
2019-03-24T23:43:11.792Z,7.01
2019-03-24T23:45:42.674Z,6.91
2019-03-24T23:48:13.645Z,6.85
2019-03-24T23:50:44.645Z,6.80
2019-03-24T23:53:15.590Z,6.75
2019-03-24T23:55:46.660Z,6.72
2019-03-24T23:58:17.745Z,6.70
